sensor_id;sensor_type;location;lat;lon;timestamp;temperature;humidity
66608;DHT22;53462;39.616;8.824;2023-06-05T00:01:45;17.70;99.90
66608;DHT22;53462;39.616;8.824;2023-06-05T00:04:11;17.60;99.90
66608;DHT22;53462;39.616;8.824;2023-06-05T00:06:37;17.70;99.90
66608;DHT22;53462;39.616;8.824;2023-06-05T00:09:04;17.60;99.90
66608;DHT22;53462;39.616;8.824;2023-06-05T00:11:30;17.50;99.90
66608;DHT22;53462;39.616;8.824;2023-06-05T00:13:56;17.50;99.90
66608;DHT22;53462;39.616;8.824;2023-06-05T00:16:22;17.60;99.90
66608;DHT22;53462;39.616;8.824;2023-06-05T00:18:48;17.60;99.90
66608;DHT22;53462;39.616;8.824;2023-06-05T00:21:15;17.60;99.90
66608;DHT22;53462;39.616;8.824;2023-06-05T00:23:45;17.60;99.90
66608;DHT22;53462;39.616;8.824;2023-06-05T00:26:11;17.60;99.90
66608;DHT22;53462;39.616;8.824;2023-06-05T00:28:37;17.60;99.90
66608;DHT22;53462;39.616;8.824;2023-06-05T00:31:05;17.60;99.90
66608;DHT22;53462;39.616;8.824;2023-06-05T00:33:32;17.60;99.90
66608;DHT22;53462;39.616;8.824;2023-06-05T00:35:58;17.60;99.90
66608;DHT22;53462;39.616;8.824;2023-06-05T00:38:25;17.50;99.90
66608;DHT22;53462;39.616;8.824;2023-06-05T00:40:52;17.50;99.90
66608;DHT22;53462;39.616;8.824;2023-06-05T00:43:18;17.50;99.90
66608;DHT22;53462;39.616;8.824;2023-06-05T00:45:44;17.50;99.90
66608;DHT22;53462;39.616;8.824;2023-06-05T00:48:10;17.50;99.90
66608;DHT22;53462;39.616;8.824;2023-06-05T00:50:37;17.50;99.90
66608;DHT22;53462;39.616;8.824;2023-06-05T00:53:04;17.50;99.90
66608;DHT22;53462;39.616;8.824;2023-06-05T00:55:31;17.40;99.90
66608;DHT22;53462;39.616;8.824;2023-06-05T00:57:58;17.40;99.90
66608;DHT22;53462;39.616;8.824;2023-06-05T01:00:27;17.30;99.90
66608;DHT22;53462;39.616;8.824;2023-06-05T01:02:53;17.30;99.90
66608;DHT22;53462;39.616;8.824;2023-06-05T01:05:22;17.20;99.90
66608;DHT22;53462;39.616;8.824;2023-06-05T01:07:49;17.30;99.90
66608;DHT22;53462;39.616;8.824;2023-06-05T01:10:16;17.20;99.90
66608;DHT22;53462;39.616;8.824;2023-06-05T01:15:44;17.00;99.90
66608;DHT22;53462;39.616;8.824;2023-06-05T01:18:10;16.80;99.90
66608;DHT22;53462;39.616;8.824;2023-06-05T01:20:40;16.70;99.90
66608;DHT22;53462;39.616;8.824;2023-06-05T01:23:10;16.70;99.90
66608;DHT22;53462;39.616;8.824;2023-06-05T01:25:37;16.60;99.90
66608;DHT22;53462;39.616;8.824;2023-06-05T01:28:08;16.60;99.90
66608;DHT22;53462;39.616;8.824;2023-06-05T01:33:38;16.50;99.90
66608;DHT22;53462;39.616;8.824;2023-06-05T01:36:13;16.60;99.90
66608;DHT22;53462;39.616;8.824;2023-06-05T01:38:41;16.70;99.90
66608;DHT22;53462;39.616;8.824;2023-06-05T01:41:08;16.70;99.90
66608;DHT22;53462;39.616;8.824;2023-06-05T01:43:36;16.70;99.90
66608;DHT22;53462;39.616;8.824;2023-06-05T01:46:05;16.70;99.90
66608;DHT22;53462;39.616;8.824;2023-06-05T01:48:33;16.70;99.90
66608;DHT22;53462;39.616;8.824;2023-06-05T01:51:00;16.60;99.90
66608;DHT22;53462;39.616;8.824;2023-06-05T01:53:29;16.50;99.90
66608;DHT22;53462;39.616;8.824;2023-06-05T01:55:55;16.50;99.90
66608;DHT22;53462;39.616;8.824;2023-06-05T01:58:26;16.50;99.90
66608;DHT22;53462;39.616;8.824;2023-06-05T02:00:53;16.50;99.90
66608;DHT22;53462;39.616;8.824;2023-06-05T02:03:20;16.60;99.90
66608;DHT22;53462;39.616;8.824;2023-06-05T02:05:46;16.70;99.90
66608;DHT22;53462;39.616;8.824;2023-06-05T02:08:12;16.70;99.90
66608;DHT22;53462;39.616;8.824;2023-06-05T02:10:39;16.80;99.90
66608;DHT22;53462;39.616;8.824;2023-06-05T02:13:10;16.80;99.90
66608;DHT22;53462;39.616;8.824;2023-06-05T02:15:36;16.70;99.90
66608;DHT22;53462;39.616;8.824;2023-06-05T02:18:03;16.70;99.90
66608;DHT22;53462;39.616;8.824;2023-06-05T02:20:31;16.60;99.90
66608;DHT22;53462;39.616;8.824;2023-06-05T02:22:58;16.60;99.90
66608;DHT22;53462;39.616;8.824;2023-06-05T02:25:24;16.60;99.90
66608;DHT22;53462;39.616;8.824;2023-06-05T02:27:52;16.50;99.90
66608;DHT22;53462;39.616;8.824;2023-06-05T02:30:18;16.40;99.90
66608;DHT22;53462;39.616;8.824;2023-06-05T02:32:46;16.30;99.90
66608;DHT22;53462;39.616;8.824;2023-06-05T02:35:13;16.30;99.90
66608;DHT22;53462;39.616;8.824;2023-06-05T02:37:40;16.40;99.90
66608;DHT22;53462;39.616;8.824;2023-06-05T02:40:11;16.50;99.90
66608;DHT22;53462;39.616;8.824;2023-06-05T02:42:38;16.40;99.90
66608;DHT22;53462;39.616;8.824;2023-06-05T02:45:05;16.40;99.90
66608;DHT22;53462;39.616;8.824;2023-06-05T02:47:33;16.30;99.90
66608;DHT22;53462;39.616;8.824;2023-06-05T02:50:01;16.20;99.90
66608;DHT22;53462;39.616;8.824;2023-06-05T02:52:29;16.20;99.90
66608;DHT22;53462;39.616;8.824;2023-06-05T02:55:04;16.10;99.90
66608;DHT22;53462;39.616;8.824;2023-06-05T02:57:32;16.10;99.90
66608;DHT22;53462;39.616;8.824;2023-06-05T03:00:00;16.10;99.90
66608;DHT22;53462;39.616;8.824;2023-06-05T03:02:35;16.10;99.90
66608;DHT22;53462;39.616;8.824;2023-06-05T03:05:04;16.10;99.90
66608;DHT22;53462;39.616;8.824;2023-06-05T03:07:31;16.00;99.90
66608;DHT22;53462;39.616;8.824;2023-06-05T03:10:00;16.10;99.90
66608;DHT22;53462;39.616;8.824;2023-06-05T03:12:28;16.20;99.90
66608;DHT22;53462;39.616;8.824;2023-06-05T03:14:54;16.30;99.90
66608;DHT22;53462;39.616;8.824;2023-06-05T03:17:20;16.30;99.90
66608;DHT22;53462;39.616;8.824;2023-06-05T03:19:46;16.40;99.90
66608;DHT22;53462;39.616;8.824;2023-06-05T03:22:12;16.40;99.90
66608;DHT22;53462;39.616;8.824;2023-06-05T03:24:39;16.40;99.90
66608;DHT22;53462;39.616;8.824;2023-06-05T03:27:08;16.40;99.90
66608;DHT22;53462;39.616;8.824;2023-06-05T03:29:34;16.20;99.90
66608;DHT22;53462;39.616;8.824;2023-06-05T03:32:00;16.20;99.90
66608;DHT22;53462;39.616;8.824;2023-06-05T03:34:26;16.10;99.90
66608;DHT22;53462;39.616;8.824;2023-06-05T03:36:56;16.10;99.90
66608;DHT22;53462;39.616;8.824;2023-06-05T03:39:24;16.10;99.90
66608;DHT22;53462;39.616;8.824;2023-06-05T03:41:52;16.00;99.90
66608;DHT22;53462;39.616;8.824;2023-06-05T03:44:19;15.90;99.90
66608;DHT22;53462;39.616;8.824;2023-06-05T03:46:46;15.80;99.90
66608;DHT22;53462;39.616;8.824;2023-06-05T03:49:12;15.90;99.90
66608;DHT22;53462;39.616;8.824;2023-06-05T03:51:39;15.80;99.90
66608;DHT22;53462;39.616;8.824;2023-06-05T03:54:08;15.80;99.90
66608;DHT22;53462;39.616;8.824;2023-06-05T03:56:35;15.80;99.90
66608;DHT22;53462;39.616;8.824;2023-06-05T03:59:07;15.70;99.90
66608;DHT22;53462;39.616;8.824;2023-06-05T04:01:45;15.70;99.90
66608;DHT22;53462;39.616;8.824;2023-06-05T04:04:12;15.60;99.90
66608;DHT22;53462;39.616;8.824;2023-06-05T04:06:38;15.60;99.90
66608;DHT22;53462;39.616;8.824;2023-06-05T04:09:07;15.70;99.90
66608;DHT22;53462;39.616;8.824;2023-06-05T04:11:42;15.80;99.90
66608;DHT22;53462;39.616;8.824;2023-06-05T04:14:10;15.90;99.90
66608;DHT22;53462;39.616;8.824;2023-06-05T04:16:37;16.10;99.90
66608;DHT22;53462;39.616;8.824;2023-06-05T04:19:11;16.10;99.90
66608;DHT22;53462;39.616;8.824;2023-06-05T04:21:39;16.20;99.90
66608;DHT22;53462;39.616;8.824;2023-06-05T04:24:06;16.20;99.90
66608;DHT22;53462;39.616;8.824;2023-06-05T04:26:34;16.30;99.90
66608;DHT22;53462;39.616;8.824;2023-06-05T04:29:00;16.20;99.90
66608;DHT22;53462;39.616;8.824;2023-06-05T04:31:31;16.20;99.90
66608;DHT22;53462;39.616;8.824;2023-06-05T04:33:58;16.20;99.90
66608;DHT22;53462;39.616;8.824;2023-06-05T04:36:26;16.20;99.90
66608;DHT22;53462;39.616;8.824;2023-06-05T04:38:53;16.20;99.90
66608;DHT22;53462;39.616;8.824;2023-06-05T04:41:19;16.20;99.90
66608;DHT22;53462;39.616;8.824;2023-06-05T04:43:47;16.30;99.90
66608;DHT22;53462;39.616;8.824;2023-06-05T04:46:14;16.40;99.90
66608;DHT22;53462;39.616;8.824;2023-06-05T04:48:41;16.40;99.90
66608;DHT22;53462;39.616;8.824;2023-06-05T04:51:09;16.50;99.90
66608;DHT22;53462;39.616;8.824;2023-06-05T04:53:35;16.50;99.90
66608;DHT22;53462;39.616;8.824;2023-06-05T04:56:02;16.60;99.90
66608;DHT22;53462;39.616;8.824;2023-06-05T04:58:31;16.60;99.90
66608;DHT22;53462;39.616;8.824;2023-06-05T05:00:58;16.60;99.90
66608;DHT22;53462;39.616;8.824;2023-06-05T05:03:32;16.60;99.90
66608;DHT22;53462;39.616;8.824;2023-06-05T05:05:59;16.60;99.90
66608;DHT22;53462;39.616;8.824;2023-06-05T05:08:26;16.70;99.90
66608;DHT22;53462;39.616;8.824;2023-06-05T05:10:53;16.80;99.90
66608;DHT22;53462;39.616;8.824;2023-06-05T05:13:20;16.80;99.90
66608;DHT22;53462;39.616;8.824;2023-06-05T05:15:46;16.90;99.90
66608;DHT22;53462;39.616;8.824;2023-06-05T05:18:12;17.00;99.90
66608;DHT22;53462;39.616;8.824;2023-06-05T05:20:38;17.00;99.90
66608;DHT22;53462;39.616;8.824;2023-06-05T05:23:05;17.10;99.90
66608;DHT22;53462;39.616;8.824;2023-06-05T05:25:33;17.10;99.90
66608;DHT22;53462;39.616;8.824;2023-06-05T05:27:59;17.30;99.90
66608;DHT22;53462;39.616;8.824;2023-06-05T05:30:26;17.40;99.90
66608;DHT22;53462;39.616;8.824;2023-06-05T05:32:52;17.50;99.90
66608;DHT22;53462;39.616;8.824;2023-06-05T05:35:18;17.70;99.90
66608;DHT22;53462;39.616;8.824;2023-06-05T05:37:46;17.80;99.90
66608;DHT22;53462;39.616;8.824;2023-06-05T05:40:12;17.80;99.90
66608;DHT22;53462;39.616;8.824;2023-06-05T05:42:38;18.00;99.90
66608;DHT22;53462;39.616;8.824;2023-06-05T05:45:04;18.20;99.90
66608;DHT22;53462;39.616;8.824;2023-06-05T05:47:30;18.20;99.90
66608;DHT22;53462;39.616;8.824;2023-06-05T05:49:56;18.30;99.90
66608;DHT22;53462;39.616;8.824;2023-06-05T05:52:22;18.50;99.90
66608;DHT22;53462;39.616;8.824;2023-06-05T05:54:48;18.70;99.90
66608;DHT22;53462;39.616;8.824;2023-06-05T05:57:14;18.90;99.90
66608;DHT22;53462;39.616;8.824;2023-06-05T05:59:40;19.20;99.90
66608;DHT22;53462;39.616;8.824;2023-06-05T06:02:10;19.70;99.90
66608;DHT22;53462;39.616;8.824;2023-06-05T06:04:38;20.10;99.90
66608;DHT22;53462;39.616;8.824;2023-06-05T06:07:04;20.30;99.90
66608;DHT22;53462;39.616;8.824;2023-06-05T06:09:31;20.20;99.90
66608;DHT22;53462;39.616;8.824;2023-06-05T06:11:58;20.00;99.90
66608;DHT22;53462;39.616;8.824;2023-06-05T06:14:28;20.40;99.90
66608;DHT22;53462;39.616;8.824;2023-06-05T06:16:54;20.70;99.90
66608;DHT22;53462;39.616;8.824;2023-06-05T06:19:21;20.90;99.90
66608;DHT22;53462;39.616;8.824;2023-06-05T06:21:50;20.90;99.90
66608;DHT22;53462;39.616;8.824;2023-06-05T06:24:18;20.80;99.90
66608;DHT22;53462;39.616;8.824;2023-06-05T06:26:48;20.80;99.90
66608;DHT22;53462;39.616;8.824;2023-06-05T06:29:18;21.00;99.90
66608;DHT22;53462;39.616;8.824;2023-06-05T06:31:44;21.20;99.90
66608;DHT22;53462;39.616;8.824;2023-06-05T06:34:10;21.20;99.90
66608;DHT22;53462;39.616;8.824;2023-06-05T06:36:39;21.40;99.90
66608;DHT22;53462;39.616;8.824;2023-06-05T06:39:06;21.50;99.90
66608;DHT22;53462;39.616;8.824;2023-06-05T06:41:36;21.80;99.90
66608;DHT22;53462;39.616;8.824;2023-06-05T06:44:03;22.00;99.90
66608;DHT22;53462;39.616;8.824;2023-06-05T06:46:30;22.00;99.90
66608;DHT22;53462;39.616;8.824;2023-06-05T06:48:56;22.10;99.90
66608;DHT22;53462;39.616;8.824;2023-06-05T06:51:22;22.30;99.90
66608;DHT22;53462;39.616;8.824;2023-06-05T06:53:48;22.50;99.90
66608;DHT22;53462;39.616;8.824;2023-06-05T06:56:15;22.90;99.90
66608;DHT22;53462;39.616;8.824;2023-06-05T06:58:43;23.10;98.30
66608;DHT22;53462;39.616;8.824;2023-06-05T07:01:09;23.10;97.80
66608;DHT22;53462;39.616;8.824;2023-06-05T07:03:36;23.50;95.10
66608;DHT22;53462;39.616;8.824;2023-06-05T07:06:04;23.30;97.20
66608;DHT22;53462;39.616;8.824;2023-06-05T07:08:30;23.20;97.40
66608;DHT22;53462;39.616;8.824;2023-06-05T07:10:56;23.40;95.10
66608;DHT22;53462;39.616;8.824;2023-06-05T07:13:22;23.70;94.40
66608;DHT22;53462;39.616;8.824;2023-06-05T07:15:49;23.30;94.80
66608;DHT22;53462;39.616;8.824;2023-06-05T07:18:18;23.30;96.40
66608;DHT22;53462;39.616;8.824;2023-06-05T07:20:45;23.40;93.30
66608;DHT22;53462;39.616;8.824;2023-06-05T07:23:11;23.80;95.60
66608;DHT22;53462;39.616;8.824;2023-06-05T07:25:37;23.80;92.20
66608;DHT22;53462;39.616;8.824;2023-06-05T07:28:08;23.70;90.70
66608;DHT22;53462;39.616;8.824;2023-06-05T07:30:35;23.70;92.20
66608;DHT22;53462;39.616;8.824;2023-06-05T07:33:01;23.90;93.60
66608;DHT22;53462;39.616;8.824;2023-06-05T07:35:27;24.10;91.10
66608;DHT22;53462;39.616;8.824;2023-06-05T07:37:53;24.30;88.90
66608;DHT22;53462;39.616;8.824;2023-06-05T07:40:19;24.10;89.70
66608;DHT22;53462;39.616;8.824;2023-06-05T07:42:45;24.30;89.90
66608;DHT22;53462;39.616;8.824;2023-06-05T07:45:11;24.60;89.70
66608;DHT22;53462;39.616;8.824;2023-06-05T07:47:37;24.50;87.30
66608;DHT22;53462;39.616;8.824;2023-06-05T07:50:03;25.00;88.60
66608;DHT22;53462;39.616;8.824;2023-06-05T07:52:31;25.00;85.70
66608;DHT22;53462;39.616;8.824;2023-06-05T07:54:57;24.70;84.40
66608;DHT22;53462;39.616;8.824;2023-06-05T07:57:24;24.60;86.00
66608;DHT22;53462;39.616;8.824;2023-06-05T07:59:50;25.20;82.70
66608;DHT22;53462;39.616;8.824;2023-06-05T08:02:17;25.30;84.10
66608;DHT22;53462;39.616;8.824;2023-06-05T08:04:44;25.70;83.80
66608;DHT22;53462;39.616;8.824;2023-06-05T08:07:10;25.00;81.40
66608;DHT22;53462;39.616;8.824;2023-06-05T08:09:36;24.30;83.00
66608;DHT22;53462;39.616;8.824;2023-06-05T08:12:03;24.50;84.80
66608;DHT22;53462;39.616;8.824;2023-06-05T08:14:30;24.80;82.20
66608;DHT22;53462;39.616;8.824;2023-06-05T08:16:56;24.50;83.30
66608;DHT22;53462;39.616;8.824;2023-06-05T08:19:22;24.70;82.50
66608;DHT22;53462;39.616;8.824;2023-06-05T08:21:51;25.30;81.20
66608;DHT22;53462;39.616;8.824;2023-06-05T08:24:20;25.50;77.40
66608;DHT22;53462;39.616;8.824;2023-06-05T08:26:46;25.80;75.70
66608;DHT22;53462;39.616;8.824;2023-06-05T08:29:12;26.50;74.90
66608;DHT22;53462;39.616;8.824;2023-06-05T08:31:38;26.80;75.30
66608;DHT22;53462;39.616;8.824;2023-06-05T08:34:04;26.20;74.10
66608;DHT22;53462;39.616;8.824;2023-06-05T08:36:31;26.70;74.50
66608;DHT22;53462;39.616;8.824;2023-06-05T08:39:01;26.00;71.00
66608;DHT22;53462;39.616;8.824;2023-06-05T08:41:30;25.40;73.00
66608;DHT22;53462;39.616;8.824;2023-06-05T08:44:01;25.30;75.50
66608;DHT22;53462;39.616;8.824;2023-06-05T08:46:28;25.90;70.30
66608;DHT22;53462;39.616;8.824;2023-06-05T08:48:56;26.40;67.40
66608;DHT22;53462;39.616;8.824;2023-06-05T08:51:22;26.70;63.90
66608;DHT22;53462;39.616;8.824;2023-06-05T08:53:53;27.10;61.70
66608;DHT22;53462;39.616;8.824;2023-06-05T08:56:20;27.60;61.60
66608;DHT22;53462;39.616;8.824;2023-06-05T08:58:46;27.30;57.10
66608;DHT22;53462;39.616;8.824;2023-06-05T09:01:15;27.30;59.60
66608;DHT22;53462;39.616;8.824;2023-06-05T09:03:42;27.30;56.90
66608;DHT22;53462;39.616;8.824;2023-06-05T09:06:10;26.50;57.80
66608;DHT22;53462;39.616;8.824;2023-06-05T09:08:36;26.10;60.30
66608;DHT22;53462;39.616;8.824;2023-06-05T09:11:28;27.00;58.40
66608;DHT22;53462;39.616;8.824;2023-06-05T09:13:55;26.40;58.10
66608;DHT22;53462;39.616;8.824;2023-06-05T09:16:22;26.90;58.60
66608;DHT22;53462;39.616;8.824;2023-06-05T09:18:56;27.40;55.40
66608;DHT22;53462;39.616;8.824;2023-06-05T09:21:26;27.50;55.00
66608;DHT22;53462;39.616;8.824;2023-06-05T09:26:59;27.50;53.90
66608;DHT22;53462;39.616;8.824;2023-06-05T09:29:34;27.90;55.60
66608;DHT22;53462;39.616;8.824;2023-06-05T09:34:33;28.60;52.80
66608;DHT22;53462;39.616;8.824;2023-06-05T09:37:03;28.20;51.50
66608;DHT22;53462;39.616;8.824;2023-06-05T09:39:30;27.80;52.10
66608;DHT22;53462;39.616;8.824;2023-06-05T09:41:57;28.10;52.10
66608;DHT22;53462;39.616;8.824;2023-06-05T09:44:25;28.60;51.00
66608;DHT22;53462;39.616;8.824;2023-06-05T09:47:04;28.40;51.90
66608;DHT22;53462;39.616;8.824;2023-06-05T09:52:07;28.40;52.10
66608;DHT22;53462;39.616;8.824;2023-06-05T09:54:36;28.10;52.10
66608;DHT22;53462;39.616;8.824;2023-06-05T09:57:04;27.40;52.00
66608;DHT22;53462;39.616;8.824;2023-06-05T09:59:31;26.80;52.80
66608;DHT22;53462;39.616;8.824;2023-06-05T10:02:05;27.50;54.10
66608;DHT22;53462;39.616;8.824;2023-06-05T10:04:52;28.40;50.50
66608;DHT22;53462;39.616;8.824;2023-06-05T10:07:20;28.90;49.50
66608;DHT22;53462;39.616;8.824;2023-06-05T10:09:49;29.40;48.00
66608;DHT22;53462;39.616;8.824;2023-06-05T10:12:16;29.60;46.40
66608;DHT22;53462;39.616;8.824;2023-06-05T10:14:43;29.50;45.70
66608;DHT22;53462;39.616;8.824;2023-06-05T10:17:11;29.30;45.00
66608;DHT22;53462;39.616;8.824;2023-06-05T10:19:41;29.20;45.90
66608;DHT22;53462;39.616;8.824;2023-06-05T10:22:13;28.80;46.30
66608;DHT22;53462;39.616;8.824;2023-06-05T10:24:44;28.90;45.30
66608;DHT22;53462;39.616;8.824;2023-06-05T10:30:24;29.40;45.50
66608;DHT22;53462;39.616;8.824;2023-06-05T10:32:53;30.00;46.40
66608;DHT22;53462;39.616;8.824;2023-06-05T10:38:25;30.70;45.70
66608;DHT22;53462;39.616;8.824;2023-06-05T10:40:59;30.80;41.70
66608;DHT22;53462;39.616;8.824;2023-06-05T10:43:30;30.90;45.20
66608;DHT22;53462;39.616;8.824;2023-06-05T10:46:00;29.20;44.80
66608;DHT22;53462;39.616;8.824;2023-06-05T10:51:43;28.40;47.20
66608;DHT22;53462;39.616;8.824;2023-06-05T10:54:14;28.80;46.80
66608;DHT22;53462;39.616;8.824;2023-06-05T10:59:18;29.80;48.80
66608;DHT22;53462;39.616;8.824;2023-06-05T11:15:35;28.30;46.80
66608;DHT22;53462;39.616;8.824;2023-06-05T11:17:50;27.80;47.90
66608;DHT22;53462;39.616;8.824;2023-06-05T11:25:24;27.70;49.70
66608;DHT22;53462;39.616;8.824;2023-06-05T11:30:28;27.50;50.50
66608;DHT22;53462;39.616;8.824;2023-06-05T11:33:09;27.40;51.80
66608;DHT22;53462;39.616;8.824;2023-06-05T11:35:39;27.50;54.40
66608;DHT22;53462;39.616;8.824;2023-06-05T11:38:19;27.50;56.70
66608;DHT22;53462;39.616;8.824;2023-06-05T11:40:46;26.70;59.70
66608;DHT22;53462;39.616;8.824;2023-06-05T11:43:13;26.30;60.00
66608;DHT22;53462;39.616;8.824;2023-06-05T11:45:40;26.30;60.50
66608;DHT22;53462;39.616;8.824;2023-06-05T11:48:07;26.60;59.80
66608;DHT22;53462;39.616;8.824;2023-06-05T11:50:34;27.40;60.40
66608;DHT22;53462;39.616;8.824;2023-06-05T11:53:07;28.00;56.30
66608;DHT22;53462;39.616;8.824;2023-06-05T11:55:33;28.40;55.50
66608;DHT22;53462;39.616;8.824;2023-06-05T11:58:33;28.90;53.80
66608;DHT22;53462;39.616;8.824;2023-06-05T12:03:30;29.80;51.30
66608;DHT22;53462;39.616;8.824;2023-06-05T12:05:58;30.10;50.90
66608;DHT22;53462;39.616;8.824;2023-06-05T12:08:27;30.10;48.50
66608;DHT22;53462;39.616;8.824;2023-06-05T12:10:55;29.80;49.80
66608;DHT22;53462;39.616;8.824;2023-06-05T12:13:43;28.50;50.00
66608;DHT22;53462;39.616;8.824;2023-06-05T12:16:09;28.10;52.60
66608;DHT22;53462;39.616;8.824;2023-06-05T12:18:35;28.10;51.40
66608;DHT22;53462;39.616;8.824;2023-06-05T12:21:01;28.60;50.30
66608;DHT22;53462;39.616;8.824;2023-06-05T12:23:30;28.80;52.20
66608;DHT22;53462;39.616;8.824;2023-06-05T12:26:00;29.30;50.30
66608;DHT22;53462;39.616;8.824;2023-06-05T12:28:27;28.50;50.40
66608;DHT22;53462;39.616;8.824;2023-06-05T12:30:54;28.70;49.90
66608;DHT22;53462;39.616;8.824;2023-06-05T12:33:20;28.70;50.90
66608;DHT22;53462;39.616;8.824;2023-06-05T12:35:46;28.90;49.70
66608;DHT22;53462;39.616;8.824;2023-06-05T12:38:13;28.80;50.40
66608;DHT22;53462;39.616;8.824;2023-06-05T12:40:39;29.10;51.50
66608;DHT22;53462;39.616;8.824;2023-06-05T12:43:16;28.50;51.80
66608;DHT22;53462;39.616;8.824;2023-06-05T12:45:45;26.70;55.30
66608;DHT22;53462;39.616;8.824;2023-06-05T12:48:11;26.10;57.70
66608;DHT22;53462;39.616;8.824;2023-06-05T12:50:38;25.40;59.10
66608;DHT22;53462;39.616;8.824;2023-06-05T12:53:07;25.20;61.60
66608;DHT22;53462;39.616;8.824;2023-06-05T12:55:33;24.90;61.40
66608;DHT22;53462;39.616;8.824;2023-06-05T12:57:59;24.90;62.20
66608;DHT22;53462;39.616;8.824;2023-06-05T13:00:24;24.80;60.20
66608;DHT22;53462;39.616;8.824;2023-06-05T13:02:50;24.60;60.90
66608;DHT22;53462;39.616;8.824;2023-06-05T13:05:16;24.60;61.80
66608;DHT22;53462;39.616;8.824;2023-06-05T13:07:43;24.60;63.60
66608;DHT22;53462;39.616;8.824;2023-06-05T13:10:10;24.70;63.40
66608;DHT22;53462;39.616;8.824;2023-06-05T13:12:38;24.50;67.00
66608;DHT22;53462;39.616;8.824;2023-06-05T13:15:05;24.60;65.80
66608;DHT22;53462;39.616;8.824;2023-06-05T13:17:32;24.20;69.10
66608;DHT22;53462;39.616;8.824;2023-06-05T13:20:01;24.30;74.50
66608;DHT22;53462;39.616;8.824;2023-06-05T13:22:32;24.30;77.00
66608;DHT22;53462;39.616;8.824;2023-06-05T13:24:58;24.20;76.10
66608;DHT22;53462;39.616;8.824;2023-06-05T13:27:24;24.30;82.30
66608;DHT22;53462;39.616;8.824;2023-06-05T13:29:50;24.10;88.50
66608;DHT22;53462;39.616;8.824;2023-06-05T13:32:16;23.80;92.10
66608;DHT22;53462;39.616;8.824;2023-06-05T13:34:42;23.60;95.60
66608;DHT22;53462;39.616;8.824;2023-06-05T13:37:08;23.60;97.50
66608;DHT22;53462;39.616;8.824;2023-06-05T13:39:34;23.50;99.90
66608;DHT22;53462;39.616;8.824;2023-06-05T13:42:00;23.50;99.90
66608;DHT22;53462;39.616;8.824;2023-06-05T13:44:29;23.50;99.90
66608;DHT22;53462;39.616;8.824;2023-06-05T13:46:55;23.50;99.90
66608;DHT22;53462;39.616;8.824;2023-06-05T13:49:21;23.50;99.90
66608;DHT22;53462;39.616;8.824;2023-06-05T13:51:47;23.30;99.90
66608;DHT22;53462;39.616;8.824;2023-06-05T13:54:13;23.30;99.90
66608;DHT22;53462;39.616;8.824;2023-06-05T13:56:39;23.30;99.90
66608;DHT22;53462;39.616;8.824;2023-06-05T13:59:05;23.20;99.90
66608;DHT22;53462;39.616;8.824;2023-06-05T14:01:30;23.20;99.90
66608;DHT22;53462;39.616;8.824;2023-06-05T14:03:56;23.20;99.90
66608;DHT22;53462;39.616;8.824;2023-06-05T14:06:22;23.00;99.90
66608;DHT22;53462;39.616;8.824;2023-06-05T14:08:48;22.90;99.90
66608;DHT22;53462;39.616;8.824;2023-06-05T14:11:14;22.80;99.90
66608;DHT22;53462;39.616;8.824;2023-06-05T14:13:40;22.80;99.90
66608;DHT22;53462;39.616;8.824;2023-06-05T14:16:08;22.80;99.90
66608;DHT22;53462;39.616;8.824;2023-06-05T14:18:36;22.80;99.90
66608;DHT22;53462;39.616;8.824;2023-06-05T14:21:02;22.60;99.90
66608;DHT22;53462;39.616;8.824;2023-06-05T14:23:28;22.50;99.90
66608;DHT22;53462;39.616;8.824;2023-06-05T14:25:53;22.50;99.90
66608;DHT22;53462;39.616;8.824;2023-06-05T14:28:20;22.40;99.90
66608;DHT22;53462;39.616;8.824;2023-06-05T14:30:48;22.40;99.90
66608;DHT22;53462;39.616;8.824;2023-06-05T14:33:14;22.40;99.90
66608;DHT22;53462;39.616;8.824;2023-06-05T14:35:42;22.40;99.90
66608;DHT22;53462;39.616;8.824;2023-06-05T14:38:08;22.50;99.90
66608;DHT22;53462;39.616;8.824;2023-06-05T14:40:38;22.70;99.90
66608;DHT22;53462;39.616;8.824;2023-06-05T14:43:05;22.90;99.90
66608;DHT22;53462;39.616;8.824;2023-06-05T14:45:31;22.90;99.90
66608;DHT22;53462;39.616;8.824;2023-06-05T14:47:58;22.90;99.90
66608;DHT22;53462;39.616;8.824;2023-06-05T14:50:24;22.90;99.90
66608;DHT22;53462;39.616;8.824;2023-06-05T14:52:50;22.90;99.90
66608;DHT22;53462;39.616;8.824;2023-06-05T14:55:16;22.80;99.90
66608;DHT22;53462;39.616;8.824;2023-06-05T14:57:42;22.90;99.90
66608;DHT22;53462;39.616;8.824;2023-06-05T15:00:08;22.80;99.90
66608;DHT22;53462;39.616;8.824;2023-06-05T15:02:34;22.80;99.90
66608;DHT22;53462;39.616;8.824;2023-06-05T15:05:01;22.90;99.90
66608;DHT22;53462;39.616;8.824;2023-06-05T15:07:38;23.00;99.90
66608;DHT22;53462;39.616;8.824;2023-06-05T15:10:05;23.10;92.00
66608;DHT22;53462;39.616;8.824;2023-06-05T15:12:31;23.20;95.50
66608;DHT22;53462;39.616;8.824;2023-06-05T15:14:57;23.20;96.40
66608;DHT22;53462;39.616;8.824;2023-06-05T15:17:23;23.10;95.00
66608;DHT22;53462;39.616;8.824;2023-06-05T15:19:49;23.10;94.50
66608;DHT22;53462;39.616;8.824;2023-06-05T15:22:15;23.30;92.70
66608;DHT22;53462;39.616;8.824;2023-06-05T15:24:41;23.40;91.00
66608;DHT22;53462;39.616;8.824;2023-06-05T15:27:07;23.40;90.90
66608;DHT22;53462;39.616;8.824;2023-06-05T15:29:34;23.50;92.80
66608;DHT22;53462;39.616;8.824;2023-06-05T15:32:00;23.50;93.70
66608;DHT22;53462;39.616;8.824;2023-06-05T15:34:26;23.50;92.60
66608;DHT22;53462;39.616;8.824;2023-06-05T15:36:52;23.60;94.80
66608;DHT22;53462;39.616;8.824;2023-06-05T15:39:18;23.70;95.40
66608;DHT22;53462;39.616;8.824;2023-06-05T15:41:43;23.70;95.40
66608;DHT22;53462;39.616;8.824;2023-06-05T15:44:10;23.80;95.10
66608;DHT22;53462;39.616;8.824;2023-06-05T15:46:37;23.80;94.40
66608;DHT22;53462;39.616;8.824;2023-06-05T15:49:03;23.80;94.10
66608;DHT22;53462;39.616;8.824;2023-06-05T15:51:28;23.70;94.00
66608;DHT22;53462;39.616;8.824;2023-06-05T15:53:55;23.80;95.30
66608;DHT22;53462;39.616;8.824;2023-06-05T15:56:23;23.70;93.30
66608;DHT22;53462;39.616;8.824;2023-06-05T15:58:49;23.60;93.40
66608;DHT22;53462;39.616;8.824;2023-06-05T16:01:16;23.80;92.00
66608;DHT22;53462;39.616;8.824;2023-06-05T16:03:42;23.80;94.00
66608;DHT22;53462;39.616;8.824;2023-06-05T16:06:08;23.60;91.50
66608;DHT22;53462;39.616;8.824;2023-06-05T16:08:38;23.60;92.90
66608;DHT22;53462;39.616;8.824;2023-06-05T16:11:04;23.60;92.80
66608;DHT22;53462;39.616;8.824;2023-06-05T16:13:30;23.70;94.30
66608;DHT22;53462;39.616;8.824;2023-06-05T16:15:56;23.80;93.20
66608;DHT22;53462;39.616;8.824;2023-06-05T16:18:22;23.90;92.30
66608;DHT22;53462;39.616;8.824;2023-06-05T16:20:48;23.90;92.00
66608;DHT22;53462;39.616;8.824;2023-06-05T16:23:14;24.00;91.00